createdAt,value
2022-11-30T00:00:30.751Z,17.70
2022-11-30T00:02:59.036Z,15.30
2022-11-30T00:05:26.688Z,15.87
2022-11-30T00:08:03.770Z,25.53
2022-11-30T00:10:31.370Z,29.23
2022-11-30T00:12:58.760Z,21.63
2022-11-30T00:15:32.767Z,40.33
2022-11-30T00:18:00.246Z,31.30
2022-11-30T00:20:30.109Z,35.20
2022-11-30T00:23:04.775Z,42.17
2022-11-30T00:25:45.803Z,62.83
2022-11-30T00:28:19.770Z,50.93
2022-11-30T00:30:56.620Z,51.57
2022-11-30T00:33:30.788Z,47.23
2022-11-30T00:35:59.624Z,50.83
2022-11-30T00:38:27.040Z,46.03
2022-11-30T00:41:06.089Z,45.63
2022-11-30T00:43:33.577Z,42.07
2022-11-30T00:46:01.370Z,36.10
2022-11-30T00:48:35.052Z,47.63
2022-11-30T00:51:02.380Z,34.73
2022-11-30T00:53:29.908Z,54.57
2022-11-30T00:56:04.037Z,38.87
2022-11-30T00:58:31.501Z,38.80
2022-11-30T01:00:59.205Z,48.23
2022-11-30T01:03:35.956Z,33.93
2022-11-30T01:06:08.672Z,59.00
2022-11-30T01:08:44.697Z,52.63
2022-11-30T01:11:21.946Z,61.43
2022-11-30T01:13:55.684Z,52.30
2022-11-30T01:16:26.410Z,67.97
2022-11-30T01:18:54.161Z,51.80
2022-11-30T01:21:31.699Z,52.67
2022-11-30T01:24:20.688Z,50.93
2022-11-30T01:26:54.739Z,43.23
2022-11-30T01:29:22.554Z,50.60
2022-11-30T01:31:49.971Z,39.63
2022-11-30T01:34:23.701Z,40.07
2022-11-30T01:36:51.149Z,33.57
2022-11-30T01:39:18.593Z,55.27
2022-11-30T01:41:56.641Z,57.93
2022-11-30T01:44:26.887Z,44.10
2022-11-30T01:47:17.631Z,42.80
2022-11-30T01:49:51.956Z,42.07
2022-11-30T01:52:29.641Z,37.30
2022-11-30T01:55:19.925Z,42.27
2022-11-30T01:58:05.654Z,37.63
2022-11-30T02:00:35.528Z,36.87
2022-11-30T02:03:24.247Z,35.67
2022-11-30T02:05:51.648Z,28.00
2022-11-30T02:08:20.060Z,48.03
2022-11-30T02:11:00.530Z,36.40
2022-11-30T02:13:31.353Z,36.60
2022-11-30T02:16:13.539Z,33.17
2022-11-30T02:19:02.649Z,38.33
2022-11-30T02:21:59.509Z,31.77
2022-11-30T02:25:21.440Z,31.03
2022-11-30T02:28:19.491Z,39.53
2022-11-30T02:30:50.479Z,31.23
2022-11-30T02:33:34.389Z,25.30
2022-11-30T02:36:07.471Z,31.43
2022-11-30T02:38:34.932Z,31.37
2022-11-30T02:41:10.573Z,49.47
2022-11-30T02:43:39.416Z,36.10
2022-11-30T02:46:25.592Z,29.93
2022-11-30T02:49:20.389Z,28.30
2022-11-30T02:51:54.543Z,26.37
2022-11-30T02:54:22.272Z,17.50
2022-11-30T02:56:54.272Z,20.80
2022-11-30T02:59:31.157Z,23.33
2022-11-30T03:01:58.683Z,27.20
2022-11-30T03:04:26.137Z,20.80
2022-11-30T03:07:00.109Z,20.67
2022-11-30T03:09:27.783Z,17.23
2022-11-30T03:11:55.213Z,17.77
2022-11-30T03:14:32.280Z,12.40
2022-11-30T03:16:59.680Z,17.10
2022-11-30T03:19:27.117Z,21.30
2022-11-30T03:22:01.216Z,23.20
2022-11-30T03:24:49.530Z,10.83
2022-11-30T03:27:23.191Z,19.93
2022-11-30T03:29:50.688Z,28.13
2022-11-30T03:32:18.532Z,21.07
2022-11-30T03:34:52.215Z,23.00
2022-11-30T03:37:19.894Z,20.20
2022-11-30T03:39:47.432Z,37.27
2022-11-30T03:42:21.204Z,17.93
2022-11-30T03:44:48.974Z,22.57
2022-11-30T03:47:16.464Z,30.50
2022-11-30T03:49:52.333Z,25.87
2022-11-30T03:52:19.743Z,19.33
2022-11-30T03:54:47.419Z,18.00
2022-11-30T03:57:21.329Z,12.20
2022-11-30T03:59:48.732Z,9.03
2022-11-30T04:02:16.085Z,16.60
2022-11-30T04:04:52.888Z,14.90
2022-11-30T04:07:20.411Z,15.53
2022-11-30T04:09:49.895Z,21.67
2022-11-30T04:12:23.930Z,18.23
2022-11-30T04:14:51.504Z,24.37
2022-11-30T04:17:18.878Z,21.20
2022-11-30T04:19:52.940Z,21.33
2022-11-30T04:22:20.251Z,22.47
2022-11-30T04:25:07.922Z,22.00
2022-11-30T04:27:35.259Z,24.73
2022-11-30T04:30:02.637Z,40.40
2022-11-30T04:32:36.957Z,13.67
2022-11-30T04:35:04.453Z,45.37
2022-11-30T04:37:31.840Z,35.87
2022-11-30T04:40:05.979Z,36.97
2022-11-30T04:42:35.595Z,30.77
2022-11-30T04:45:03.226Z,29.37
2022-11-30T04:47:40.136Z,29.97
2022-11-30T04:50:08.470Z,29.13
2022-11-30T04:52:36.329Z,20.83
2022-11-30T04:55:11.139Z,19.03
2022-11-30T04:57:38.424Z,21.40
2022-11-30T05:00:07.275Z,27.27
2022-11-30T05:02:41.131Z,37.40
2022-11-30T05:05:09.086Z,32.37
2022-11-30T05:07:36.468Z,32.60
2022-11-30T05:10:11.174Z,28.50
2022-11-30T05:12:38.515Z,42.67
2022-11-30T05:15:06.485Z,36.13
2022-11-30T05:17:40.123Z,54.33
2022-11-30T05:20:07.958Z,45.30
2022-11-30T05:22:35.443Z,63.47
2022-11-30T05:25:10.143Z,54.43
2022-11-30T05:27:44.264Z,52.73
2022-11-30T05:30:21.137Z,54.30
2022-11-30T05:32:48.498Z,75.27
2022-11-30T05:35:15.936Z,59.20
2022-11-30T05:37:50.162Z,49.97
2022-11-30T05:40:17.656Z,67.13
2022-11-30T05:42:45.023Z,61.10
2022-11-30T05:45:19.897Z,76.10
2022-11-30T05:47:47.278Z,68.67
2022-11-30T05:50:19.348Z,60.47
2022-11-30T05:53:07.586Z,67.73
2022-11-30T05:55:34.974Z,66.33
2022-11-30T05:58:02.466Z,60.57
2022-11-30T06:00:36.553Z,64.77
2022-11-30T06:03:04.044Z,73.23
2022-11-30T06:05:34.300Z,51.70
2022-11-30T06:08:11.151Z,65.00
2022-11-30T06:10:43.058Z,52.60
2022-11-30T06:13:10.584Z,47.03
2022-11-30T06:15:50.088Z,58.70
2022-11-30T06:18:17.457Z,52.47
2022-11-30T06:20:47.024Z,50.53
2022-11-30T06:23:21.068Z,54.47
2022-11-30T06:25:55.152Z,70.27
2022-11-30T06:28:29.050Z,57.63
2022-11-30T06:31:03.204Z,68.03
2022-11-30T06:33:37.128Z,48.83
2022-11-30T06:36:04.902Z,43.03
2022-11-30T06:38:32.579Z,36.47
2022-11-30T06:41:15.060Z,61.03
2022-11-30T06:43:42.547Z,60.20
2022-11-30T06:46:25.536Z,49.50
2022-11-30T06:48:52.993Z,44.57
2022-11-30T06:51:20.458Z,35.67
2022-11-30T06:53:54.579Z,45.87
2022-11-30T06:56:22.206Z,34.17
2022-11-30T06:58:54.412Z,49.17
2022-11-30T07:01:27.941Z,39.40
2022-11-30T07:03:55.494Z,38.07
2022-11-30T07:06:25.087Z,45.50
2022-11-30T07:08:59.152Z,46.30
2022-11-30T07:11:26.548Z,34.00
2022-11-30T07:13:53.905Z,54.00
2022-11-30T07:16:28.185Z,44.33
2022-11-30T07:18:55.773Z,46.17
2022-11-30T07:21:23.217Z,48.37
2022-11-30T07:24:15.145Z,47.23
2022-11-30T07:26:49.180Z,42.77
2022-11-30T07:29:23.181Z,54.37
2022-11-30T07:31:54.254Z,38.13
2022-11-30T07:34:23.169Z,36.13
2022-11-30T07:36:57.190Z,38.20
2022-11-30T07:39:24.848Z,36.30
2022-11-30T07:41:54.538Z,37.83
2022-11-30T07:44:28.581Z,24.47
2022-11-30T07:47:02.686Z,33.83
2022-11-30T07:49:36.564Z,30.23
2022-11-30T07:52:04.694Z,28.40
2022-11-30T07:54:34.917Z,26.77
2022-11-30T07:57:11.858Z,36.33
2022-11-30T07:59:39.260Z,29.20
2022-11-30T08:02:07.102Z,30.20
2022-11-30T08:04:40.904Z,46.77
2022-11-30T08:07:08.339Z,45.20
2022-11-30T08:09:36.049Z,40.23
2022-11-30T08:12:09.923Z,27.93
2022-11-30T08:14:56.551Z,30.50
2022-11-30T08:17:31.370Z,19.30
2022-11-30T08:19:58.834Z,37.23
2022-11-30T08:22:26.270Z,25.20
2022-11-30T08:24:59.893Z,35.73
2022-11-30T08:27:33.963Z,31.63
2022-11-30T08:30:07.884Z,32.23
2022-11-30T08:32:35.288Z,36.07
2022-11-30T08:35:02.710Z,27.63
2022-11-30T08:37:36.912Z,33.27
2022-11-30T08:40:05.343Z,29.47
2022-11-30T08:42:32.776Z,26.70
2022-11-30T08:45:06.881Z,24.43
2022-11-30T08:47:34.364Z,54.07
2022-11-30T08:50:01.830Z,30.83
2022-11-30T08:52:37.675Z,33.27
2022-11-30T08:55:05.480Z,40.60
2022-11-30T08:57:33.271Z,61.40
2022-11-30T09:00:06.774Z,31.20
2022-11-30T09:02:37.272Z,51.17
2022-11-30T09:05:18.612Z,30.23
2022-11-30T09:07:46.167Z,44.43
2022-11-30T09:10:13.711Z,47.70
2022-11-30T09:12:48.586Z,37.40
2022-11-30T09:15:15.926Z,35.20
2022-11-30T09:17:43.334Z,26.40
2022-11-30T09:20:17.607Z,29.67
2022-11-30T09:22:44.963Z,27.73
2022-11-30T09:25:32.587Z,16.23
2022-11-30T09:28:00.034Z,19.63
2022-11-30T09:30:27.499Z,17.57
2022-11-30T09:33:01.609Z,19.37
2022-11-30T09:35:29.006Z,15.63
2022-11-30T09:37:56.390Z,15.70
2022-11-30T09:43:30.979Z,13.43
2022-11-30T09:46:08.660Z,11.17
2022-11-30T09:48:58.103Z,14.30
2022-11-30T09:51:56.608Z,11.50
2022-11-30T09:54:36.343Z,11.20
2022-11-30T09:57:35.657Z,10.37
2022-11-30T10:00:16.338Z,10.73
2022-11-30T10:02:51.737Z,10.90
2022-11-30T10:05:27.001Z,13.00
2022-11-30T10:08:12.623Z,14.80
2022-11-30T10:10:42.174Z,11.63
2022-11-30T10:13:37.681Z,11.73
2022-11-30T10:16:11.048Z,12.40
2022-11-30T10:18:56.642Z,13.00
2022-11-30T10:21:29.926Z,12.43
2022-11-30T10:24:36.831Z,12.70
2022-11-30T10:27:28.004Z,13.10
2022-11-30T10:30:06.791Z,13.43
2022-11-30T10:32:45.045Z,14.87
2022-11-30T10:35:36.240Z,15.13
2022-11-30T10:38:34.898Z,18.33
2022-11-30T10:41:16.701Z,16.07
2022-11-30T10:43:52.980Z,18.77
2022-11-30T10:46:41.592Z,22.93
2022-11-30T10:49:15.997Z,25.00
2022-11-30T10:51:53.544Z,24.17
2022-11-30T10:54:25.318Z,29.87
2022-11-30T10:56:52.749Z,26.20
2022-11-30T10:59:52.306Z,17.80
2022-11-30T11:02:52.426Z,18.10
2022-11-30T11:05:38.109Z,28.77
2022-11-30T11:08:27.369Z,28.47
2022-11-30T11:11:01.418Z,31.50
2022-11-30T11:13:43.190Z,22.90
2022-11-30T11:16:19.481Z,16.30
2022-11-30T11:18:57.357Z,14.53
2022-11-30T11:21:33.211Z,16.27
2022-11-30T11:24:08.768Z,14.23
2022-11-30T11:26:50.182Z,14.47
2022-11-30T11:29:37.120Z,15.73
2022-11-30T11:32:34.204Z,15.67
2022-11-30T11:35:04.386Z,15.30
2022-11-30T11:37:44.126Z,14.33
2022-11-30T11:40:29.508Z,16.13
2022-11-30T11:43:05.374Z,15.87
2022-11-30T11:45:37.870Z,14.87
2022-11-30T11:48:33.238Z,15.13
2022-11-30T11:51:07.392Z,16.90
2022-11-30T11:53:58.371Z,14.27
2022-11-30T11:56:25.699Z,14.33
2022-11-30T11:59:17.345Z,14.37
2022-11-30T12:02:07.842Z,14.53
2022-11-30T12:05:03.054Z,14.47
2022-11-30T12:07:53.797Z,13.33
2022-11-30T12:10:54.655Z,13.70
2022-11-30T12:13:33.163Z,13.73
2022-11-30T12:16:21.166Z,13.50
2022-11-30T12:19:09.032Z,13.60
2022-11-30T12:22:19.540Z,13.90
2022-11-30T12:25:29.520Z,13.37
2022-11-30T12:28:14.514Z,14.47
2022-11-30T12:31:00.331Z,14.80
2022-11-30T12:33:37.529Z,14.93
2022-11-30T12:36:18.918Z,14.50
2022-11-30T12:39:01.636Z,17.40
2022-11-30T12:41:28.940Z,19.80
2022-11-30T12:44:10.592Z,17.17
2022-11-30T12:46:59.229Z,17.73
2022-11-30T12:49:55.173Z,18.60
2022-11-30T12:52:35.230Z,18.00
2022-11-30T12:55:45.560Z,16.63
2022-11-30T12:58:16.699Z,16.63
2022-11-30T13:01:01.724Z,18.30
2022-11-30T13:03:29.083Z,16.13
2022-11-30T13:06:13.685Z,18.00
2022-11-30T13:09:10.511Z,17.80
2022-11-30T13:11:47.657Z,17.00
2022-11-30T13:14:20.467Z,16.30
2022-11-30T13:17:09.776Z,17.20
2022-11-30T13:19:53.612Z,15.77
2022-11-30T13:23:00.238Z,15.20
2022-11-30T13:28:47.035Z,16.10
2022-11-30T13:31:23.866Z,11.63
2022-11-30T13:34:06.541Z,15.23
2022-11-30T13:36:39.533Z,13.37
2022-11-30T13:39:30.661Z,12.23
2022-11-30T13:42:06.186Z,13.17
2022-11-30T13:44:45.576Z,14.03
2022-11-30T13:47:36.296Z,13.00
2022-11-30T13:50:29.519Z,14.13
2022-11-30T13:53:02.814Z,13.00
2022-11-30T13:55:49.070Z,14.20
2022-11-30T13:58:19.583Z,13.17
2022-11-30T14:01:05.750Z,14.20
2022-11-30T14:06:50.725Z,14.20
2022-11-30T14:09:40.996Z,15.83
2022-11-30T14:12:39.874Z,16.23
2022-11-30T14:15:34.361Z,16.60
2022-11-30T14:18:16.757Z,17.23
2022-11-30T14:20:57.503Z,18.07
2022-11-30T14:23:46.697Z,16.10
2022-11-30T14:26:24.804Z,16.00
2022-11-30T14:29:10.699Z,16.13
2022-11-30T14:32:03.094Z,16.13
2022-11-30T14:34:42.724Z,17.77
2022-11-30T14:37:23.242Z,20.27
2022-11-30T14:40:00.781Z,16.27
2022-11-30T14:42:30.616Z,16.20
2022-11-30T14:44:58.485Z,14.97
2022-11-30T14:47:47.990Z,15.27
2022-11-30T14:50:24.876Z,14.13
2022-11-30T14:53:07.714Z,13.40
2022-11-30T14:55:49.626Z,12.60
2022-11-30T14:58:36.715Z,14.63
2022-11-30T15:01:16.732Z,13.40
2022-11-30T15:03:52.820Z,16.23
2022-11-30T15:06:31.258Z,14.90
2022-11-30T15:09:07.826Z,16.53
2022-11-30T15:11:40.403Z,14.63
2022-11-30T15:14:16.737Z,13.80
2022-11-30T15:16:53.333Z,15.40
2022-11-30T15:19:34.731Z,15.73
2022-11-30T15:22:04.583Z,15.93
2022-11-30T15:24:34.057Z,18.17
2022-11-30T15:27:11.952Z,15.97
2022-11-30T15:30:03.220Z,17.73
2022-11-30T15:32:36.930Z,18.20
2022-11-30T15:35:04.492Z,17.30
2022-11-30T15:37:34.601Z,18.27
2022-11-30T15:40:11.960Z,17.50
2022-11-30T15:42:40.925Z,19.80
2022-11-30T15:45:21.927Z,18.83
2022-11-30T15:47:50.350Z,18.40
2022-11-30T15:50:36.901Z,19.93
2022-11-30T15:53:26.044Z,19.50
2022-11-30T15:56:02.957Z,20.83
2022-11-30T15:59:00.019Z,20.83
2022-11-30T16:01:34.977Z,20.07
2022-11-30T16:04:05.319Z,21.67
2022-11-30T16:06:43.978Z,23.60
2022-11-30T16:09:23.382Z,19.10
2022-11-30T16:12:04.006Z,20.63
2022-11-30T16:14:31.645Z,20.77
2022-11-30T16:17:01.587Z,24.40
2022-11-30T16:19:39.964Z,20.33
2022-11-30T16:22:36.963Z,17.33
2022-11-30T16:25:13.997Z,19.23
2022-11-30T16:27:48.504Z,20.23
2022-11-30T16:30:25.022Z,20.57
2022-11-30T16:32:54.819Z,20.73
2022-11-30T16:35:43.871Z,20.67
2022-11-30T16:38:11.248Z,19.50
2022-11-30T16:40:41.015Z,19.33
2022-11-30T16:43:18.012Z,90.83
2022-11-30T16:45:51.110Z,93.87
2022-11-30T16:48:19.188Z,44.07
2022-11-30T16:50:53.049Z,24.27
2022-11-30T16:53:22.810Z,23.00
2022-11-30T16:55:52.340Z,26.27
2022-11-30T16:58:25.963Z,22.90
2022-11-30T17:00:53.599Z,26.50
2022-11-30T17:03:36.542Z,25.53
2022-11-30T17:06:07.172Z,26.83
2022-11-30T17:08:34.594Z,29.57
2022-11-30T17:11:08.582Z,32.97
2022-11-30T17:13:35.992Z,31.97
2022-11-30T17:16:03.424Z,34.20
2022-11-30T17:18:37.635Z,33.63
2022-11-30T17:21:12.693Z,38.27
2022-11-30T17:23:46.464Z,33.27
2022-11-30T17:26:24.901Z,35.63
2022-11-30T17:29:05.708Z,30.00
2022-11-30T17:31:35.784Z,33.07
2022-11-30T17:34:05.787Z,28.67
2022-11-30T17:36:39.553Z,32.00
2022-11-30T17:39:12.487Z,33.47
2022-11-30T17:41:39.851Z,41.73
2022-11-30T17:44:18.877Z,29.57
2022-11-30T17:46:48.498Z,38.50
2022-11-30T17:49:16.132Z,51.30
2022-11-30T17:51:49.948Z,49.50
2022-11-30T17:54:17.474Z,37.23
2022-11-30T17:56:45.014Z,38.10
2022-11-30T17:59:20.898Z,34.47
2022-11-30T18:01:48.698Z,32.37
2022-11-30T18:04:16.295Z,36.63
2022-11-30T18:06:49.947Z,32.37
2022-11-30T18:09:17.371Z,32.47
2022-11-30T18:11:45.385Z,42.47
2022-11-30T18:14:18.918Z,36.97
2022-11-30T18:16:46.442Z,42.33
2022-11-30T18:19:15.074Z,90.37
2022-11-30T18:21:53.196Z,105.27
2022-11-30T18:24:25.007Z,52.70
2022-11-30T18:27:14.303Z,49.50
2022-11-30T18:29:46.539Z,29.50
2022-11-30T18:32:13.928Z,30.67
2022-11-30T18:34:48.028Z,36.57
2022-11-30T18:37:18.680Z,41.03
2022-11-30T18:39:46.149Z,41.70
2022-11-30T18:42:20.596Z,43.60
2022-11-30T18:44:48.237Z,27.10
2022-11-30T18:47:20.094Z,29.60
2022-11-30T18:49:54.233Z,37.03
2022-11-30T18:52:21.814Z,38.97
2022-11-30T18:54:49.586Z,46.03
2022-11-30T18:57:25.521Z,41.53
2022-11-30T18:59:54.090Z,36.00
2022-11-30T19:02:22.036Z,42.80
2022-11-30T19:04:56.493Z,74.53
2022-11-30T19:07:26.261Z,90.47
2022-11-30T19:09:55.566Z,85.80
2022-11-30T19:12:29.643Z,102.60
2022-11-30T19:14:57.008Z,62.50
2022-11-30T19:17:24.425Z,76.27
2022-11-30T19:19:58.673Z,114.80
2022-11-30T19:22:30.139Z,99.67
2022-11-30T19:24:57.530Z,90.37
2022-11-30T19:27:31.588Z,87.93
2022-11-30T19:30:05.913Z,76.40
2022-11-30T19:32:40.337Z,79.37
2022-11-30T19:35:08.298Z,87.30
2022-11-30T19:37:38.036Z,99.80
2022-11-30T19:40:13.217Z,100.03
2022-11-30T19:42:40.592Z,79.83
2022-11-30T19:45:11.407Z,91.87
2022-11-30T19:47:52.586Z,81.27
2022-11-30T19:50:20.039Z,79.70
2022-11-30T19:52:47.495Z,90.30
2022-11-30T19:55:21.290Z,109.53
2022-11-30T19:57:48.732Z,109.07
2022-11-30T20:00:16.573Z,107.97
2022-11-30T20:02:50.498Z,108.63
2022-11-30T20:05:18.553Z,117.43
2022-11-30T20:07:46.093Z,110.17
2022-11-30T20:10:20.367Z,109.47
2022-11-30T20:12:47.760Z,106.20
2022-11-30T20:15:15.166Z,103.40
2022-11-30T20:17:49.303Z,111.63
2022-11-30T20:20:16.829Z,99.70
2022-11-30T20:22:46.549Z,114.53
2022-11-30T20:25:20.628Z,99.93
2022-11-30T20:27:54.695Z,108.50
2022-11-30T20:30:28.726Z,102.67
2022-11-30T20:32:56.203Z,113.07
2022-11-30T20:35:23.659Z,99.00
2022-11-30T20:37:57.654Z,119.13
2022-11-30T20:40:27.359Z,89.30
2022-11-30T20:42:54.721Z,89.90
2022-11-30T20:45:28.497Z,91.60
2022-11-30T20:48:00.445Z,81.07
2022-11-30T20:50:27.982Z,93.90
2022-11-30T20:53:01.530Z,86.80
2022-11-30T20:55:28.987Z,76.10
2022-11-30T20:57:58.466Z,59.97
2022-11-30T21:00:32.501Z,80.97
2022-11-30T21:03:00.004Z,87.33
2022-11-30T21:05:27.839Z,65.63
2022-11-30T21:08:01.621Z,78.30
2022-11-30T21:10:29.138Z,81.53
2022-11-30T21:12:57.966Z,83.87
2022-11-30T21:15:32.553Z,87.80
2022-11-30T21:18:00.033Z,85.53
2022-11-30T21:20:30.278Z,109.47
2022-11-30T21:23:04.024Z,113.47
2022-11-30T21:25:35.882Z,94.83
2022-11-30T21:28:16.748Z,96.73
2022-11-30T21:30:50.861Z,94.63
2022-11-30T21:33:24.682Z,108.37
2022-11-30T21:35:52.105Z,91.80
2022-11-30T21:38:19.501Z,79.17
2022-11-30T21:41:13.762Z,109.50
2022-11-30T21:43:41.557Z,95.30
2022-11-30T21:46:23.761Z,107.87
2022-11-30T21:48:51.640Z,95.27
2022-11-30T21:51:30.729Z,113.17
2022-11-30T21:54:01.673Z,117.37
2022-11-30T21:56:38.719Z,111.93
2022-11-30T21:59:08.567Z,99.30
2022-11-30T22:01:45.754Z,117.53
2022-11-30T22:04:14.313Z,109.63
2022-11-30T22:06:42.953Z,113.67
2022-11-30T22:09:23.798Z,117.07
2022-11-30T22:11:51.468Z,83.33
2022-11-30T22:14:19.657Z,114.10
2022-11-30T22:16:53.752Z,110.73
2022-11-30T22:19:21.340Z,100.63
2022-11-30T22:21:50.385Z,95.97
2022-11-30T22:24:24.737Z,101.73
2022-11-30T22:26:58.854Z,104.20
2022-11-30T22:29:39.719Z,118.10
2022-11-30T22:32:07.110Z,103.13
2022-11-30T22:34:34.665Z,105.93
2022-11-30T22:37:08.716Z,98.00
2022-11-30T22:39:36.188Z,92.53
2022-11-30T22:42:03.699Z,80.20
2022-11-30T22:44:37.715Z,81.30
2022-11-30T22:47:05.335Z,37.20
2022-11-30T22:49:32.781Z,35.13
2022-11-30T22:52:09.256Z,30.07
2022-11-30T22:54:36.676Z,31.47
2022-11-30T22:57:04.131Z,46.67
2022-11-30T22:59:38.336Z,37.83
2022-11-30T23:02:05.758Z,43.63
2022-11-30T23:04:33.286Z,59.57
2022-11-30T23:07:07.305Z,81.43
2022-11-30T23:09:34.691Z,53.63
2022-11-30T23:12:02.088Z,47.43
2022-11-30T23:14:36.305Z,50.43
2022-11-30T23:17:03.798Z,61.50
2022-11-30T23:19:31.333Z,71.53
2022-11-30T23:22:05.304Z,66.50
2022-11-30T23:24:32.765Z,51.97
2022-11-30T23:27:13.270Z,54.57
2022-11-30T23:29:47.982Z,55.37
2022-11-30T23:32:23.356Z,51.27
2022-11-30T23:34:51.054Z,56.83
2022-11-30T23:37:18.661Z,36.40
2022-11-30T23:39:52.330Z,30.70
2022-11-30T23:42:19.707Z,27.10
2022-11-30T23:44:47.998Z,29.37
2022-11-30T23:47:22.324Z,27.60
2022-11-30T23:49:50.278Z,27.17
2022-11-30T23:52:18.295Z,30.27
2022-11-30T23:54:52.427Z,30.80
2022-11-30T23:57:19.873Z,27.43
2022-11-30T23:59:48.067Z,27.47
